Time;durP1;ratioP1;P1;durP2;ratioP2;P2;SDS_P1;SDS_P2;PMS_P1;PMS_P2;Temp;Humidity;BMP_temperature;BMP_pressure;BME280_temperature;BME280_humidity;BME280_pressure;Samples;Min_cycle;Max_cycle;Signal;HPM_P1;HPM_P2
2022/12/07 00:01:24;;;;;;;16.17;9.27;;;;;;;2.60;100.00;101748.09;5021672;28;20164;-71
2022/12/07 00:03:52;;;;;;;13.10;9.43;;;;;;;2.52;100.00;101740.25;5009970;28;20044;-73
2022/12/07 00:06:18;;;;;;;20.13;11.15;;;;;;;2.53;100.00;101746.50;5008890;28;20029;-72
2022/12/07 00:08:44;;;;;;;13.88;9.05;;;;;;;2.51;100.00;101751.88;5025110;28;20038;-73
2022/12/07 00:11:12;;;;;;;16.23;9.50;;;;;;;2.48;100.00;101737.69;5008056;28;20644;-72
2022/12/07 00:13:38;;;;;;;16.10;8.73;;;;;;;2.41;100.00;101750.34;5024228;28;20054;-73
2022/12/07 00:16:09;;;;;;;15.18;8.90;;;;;;;2.35;100.00;101749.63;5010147;28;20065;-72
2022/12/07 00:18:36;;;;;;;13.23;8.75;;;;;;;2.28;100.00;101746.19;5024182;28;20061;-72
2022/12/07 00:21:04;;;;;;;14.85;8.75;;;;;;;2.27;100.00;101745.31;5008800;28;20038;-72
2022/12/07 00:23:30;;;;;;;15.25;9.00;;;;;;;2.23;100.00;101738.25;5010112;28;20033;-72
2022/12/07 00:25:55;;;;;;;13.38;8.88;;;;;;;2.20;100.00;101734.78;5003082;28;20044;-72
2022/12/07 00:28:20;;;;;;;14.13;9.07;;;;;;;2.18;100.00;101734.78;4994244;28;20064;-72
2022/12/07 00:30:46;;;;;;;12.38;8.90;;;;;;;2.18;100.00;101729.41;5009746;28;20037;-72
2022/12/07 00:33:11;;;;;;;15.27;8.40;;;;;;;2.16;100.00;101725.03;4991953;28;20034;-72
2022/12/07 00:35:36;;;;;;;11.07;8.00;;;;;;;2.15;100.00;101724.13;4991050;28;20061;-71
2022/12/07 00:38:02;;;;;;;14.52;8.60;;;;;;;2.16;100.00;101720.53;5009782;28;20045;-72
2022/12/07 00:40:27;;;;;;;13.38;9.27;;;;;;;2.15;100.00;101725.94;5006771;28;20414;-72
2022/12/07 00:42:52;;;;;;;18.25;9.93;;;;;;;2.15;100.00;101731.31;5008986;28;20135;-72
2022/12/07 00:45:18;;;;;;;15.32;9.18;;;;;;;2.12;100.00;101726.88;5009606;28;20073;-72
2022/12/07 00:47:43;;;;;;;14.18;8.70;;;;;;;2.10;100.00;101725.13;5006582;28;20044;-74
2022/12/07 00:50:09;;;;;;;14.05;8.73;;;;;;;2.03;100.00;101730.66;5025014;28;20073;-72
2022/12/07 00:52:34;;;;;;;13.70;8.70;;;;;;;2.04;100.00;101737.78;5007382;28;20466;-72
2022/12/07 00:54:59;;;;;;;14.32;8.80;;;;;;;2.01;100.00;101729.81;5020052;28;20077;-72
2022/12/07 00:57:24;;;;;;;13.23;8.52;;;;;;;2.02;100.00;101728.03;4997071;28;20128;-72
2022/12/07 00:59:50;;;;;;;16.75;8.88;;;;;;;2.01;100.00;101729.81;5008177;28;20045;-71
2022/12/07 01:02:15;;;;;;;17.00;9.68;;;;;;;2.00;100.00;101719.09;5007175;28;20041;-72
2022/12/07 01:04:41;;;;;;;14.48;9.02;;;;;;;1.95;100.00;101724.56;5009955;28;20030;-71
2022/12/07 01:07:06;;;;;;;13.50;8.40;;;;;;;1.92;100.00;101713.94;5007355;28;20512;-73
2022/12/07 01:09:32;;;;;;;14.52;9.18;;;;;;;1.88;100.00;101711.34;5008988;28;20464;-71
2022/12/07 01:11:57;;;;;;;12.38;8.20;;;;;;;1.87;100.00;101718.53;5006569;28;20033;-72
2022/12/07 01:14:23;;;;;;;12.50;8.10;;;;;;;1.83;100.00;101722.19;5008720;28;20042;-72
2022/12/07 01:16:48;;;;;;;14.63;9.40;;;;;;;1.79;100.00;101723.16;5007855;28;20481;-72
2022/12/07 01:19:13;;;;;;;14.15;8.32;;;;;;;1.79;100.00;101720.50;5008905;28;20434;-72
2022/12/07 01:21:39;;;;;;;16.55;9.02;;;;;;;1.81;100.00;101724.00;5007897;28;20040;-72
2022/12/07 01:24:08;;;;;;;13.02;8.68;;;;;;;1.83;100.00;101727.56;5008741;28;20561;-72
2022/12/07 01:26:34;;;;;;;14.27;8.07;;;;;;;1.86;100.00;101726.59;5006241;28;20057;-73
2022/12/07 01:29:00;;;;;;;16.20;9.02;;;;;;;1.87;100.00;101723.00;5022452;28;20050;-71
2022/12/07 01:31:27;;;;;;;15.27;8.52;;;;;;;1.92;100.00;101734.53;5007398;28;20044;-72
2022/12/07 01:33:58;;;;;;;14.88;9.48;;;;;;;1.96;100.00;101739.78;5022342;28;20460;-71
2022/12/07 01:36:32;;;;;;;12.82;9.40;;;;;;;1.98;100.00;101724.53;5005128;28;20046;-72
2022/12/07 01:39:00;;;;;;;17.13;9.05;;;;;;;2.03;100.00;101722.59;5008302;28;20516;-71
2022/12/07 01:41:28;;;;;;;12.52;8.15;;;;;;;2.09;100.00;101726.06;5002699;28;20497;-72
2022/12/07 01:44:15;;;;;;;16.88;8.93;;;;;;;2.15;100.00;101725.94;5008706;28;20411;-71
2022/12/07 01:46:45;;;;;;;17.20;9.20;;;;;;;2.20;100.00;101721.34;5006937;28;20045;-72
2022/12/07 01:49:17;;;;;;;18.95;10.10;;;;;;;2.28;100.00;101728.31;5008818;28;20110;-72
2022/12/07 01:51:44;;;;;;;15.07;9.67;;;;;;;2.32;100.00;101721.03;5023808;28;20116;-72
2022/12/07 01:54:12;;;;;;;17.52;9.77;;;;;;;2.38;100.00;101725.38;4993001;28;20030;-72
2022/12/07 01:56:39;;;;;;;19.20;9.90;;;;;;;2.41;100.00;101725.31;5015229;28;20109;-73
2022/12/07 01:59:04;;;;;;;17.73;9.35;;;;;;;2.42;100.00;101721.69;5007530;28;20091;-72
2022/12/07 02:01:31;;;;;;;20.10;9.85;;;;;;;2.41;100.00;101715.44;5022575;28;20508;-75
2022/12/07 02:03:57;;;;;;;16.33;8.73;;;;;;;2.38;100.00;101709.25;5007352;28;20481;-72
2022/12/07 02:06:25;;;;;;;16.15;8.63;;;;;;;2.35;100.00;101712.03;5005656;28;20065;-72
2022/12/07 02:08:50;;;;;;;13.15;8.25;;;;;;;2.30;100.00;101723.75;5007688;28;20044;-72
2022/12/07 02:11:16;;;;;;;14.38;8.38;;;;;;;2.25;100.00;101720.31;5007161;28;20109;-72
2022/12/07 02:13:43;;;;;;;16.58;8.60;;;;;;;2.20;100.00;101715.97;5007523;28;20046;-72
2022/12/07 02:16:33;;;;;;;12.77;8.35;;;;;;;2.16;100.00;101715.16;4990538;28;20579;-71
2022/12/07 02:19:04;;;;;;;13.38;8.68;;;;;;;2.14;100.00;101718.78;5006497;28;20446;-72
2022/12/07 02:21:52;;;;;;;12.20;7.97;;;;;;;2.11;100.00;101718.88;5021653;28;20128;-72
2022/12/07 02:24:39;;;;;;;13.68;7.95;;;;;;;2.07;100.00;101723.44;5006090;28;20087;-72
2022/12/07 02:27:28;;;;;;;16.77;8.20;;;;;;;2.05;100.00;101717.19;5004816;28;20096;-72
2022/12/07 02:29:58;;;;;;;16.70;8.60;;;;;;;2.01;100.00;101713.72;5022787;28;20073;-72
2022/12/07 02:32:31;;;;;;;11.95;7.80;;;;;;;1.97;100.00;101709.34;5021746;28;20037;-73
2022/12/07 02:35:11;;;;;;;16.08;7.95;;;;;;;1.94;100.00;101712.09;5005870;28;20042;-72
2022/12/07 02:38:12;;;;;;;13.85;8.05;;;;;;;1.90;100.00;101707.69;5006325;28;20128;-72
2022/12/07 02:40:50;;;;;;;17.85;8.52;;;;;;;1.90;100.00;101709.50;5005392;28;20041;-73
2022/12/07 02:43:27;;;;;;;12.13;8.13;;;;;;;1.90;100.00;101714.88;5006960;28;20037;-73
2022/12/07 02:46:01;;;;;;;12.40;8.07;;;;;;;1.89;100.00;101718.47;5007405;28;20473;-73
2022/12/07 02:48:27;;;;;;;16.95;7.85;;;;;;;1.86;100.00;101714.06;5005339;28;20473;-72
2022/12/07 02:50:53;;;;;;;15.00;7.80;;;;;;;1.86;100.00;101710.50;5006344;28;20446;-72
2022/12/07 02:53:35;;;;;;;15.32;9.05;;;;;;;1.89;100.00;101707.75;5005958;28;20034;-73
2022/12/07 02:56:26;;;;;;;12.20;8.30;;;;;;;1.90;100.00;101705.03;5004442;28;20055;-72
2022/12/07 02:59:22;;;;;;;13.95;8.20;;;;;;;1.92;100.00;101711.25;5007215;28;20045;-72
2022/12/07 03:02:11;;;;;;;14.88;8.40;;;;;;;1.93;100.00;101712.13;5021209;28;20125;-72
2022/12/07 03:05:11;;;;;;;12.70;8.57;;;;;;;1.89;100.00;101708.63;4993259;28;20046;-72
2022/12/07 03:08:10;;;;;;;17.83;7.45;;;;;;;1.86;100.00;101708.69;5005677;28;20073;-71
2022/12/07 03:10:57;;;;;;;19.52;8.82;;;;;;;1.88;100.00;101712.25;5003762;28;20069;-72
2022/12/07 03:13:39;;;;;;;16.08;8.35;;;;;;;1.87;100.00;101714.97;5020668;28;20058;-72
2022/12/07 03:16:16;;;;;;;17.70;8.43;;;;;;;1.84;100.00;101717.69;5006676;28;20057;-72
2022/12/07 03:18:54;;;;;;;11.18;7.65;;;;;;;1.83;100.00;101715.94;5007229;28;20049;-72
2022/12/07 03:21:24;;;;;;;17.20;8.18;;;;;;;1.77;100.00;101708.88;5006834;28;20069;-72
2022/12/07 03:23:55;;;;;;;16.45;7.22;;;;;;;1.77;100.00;101708.88;5005274;28;20030;-72
2022/12/07 03:26:24;;;;;;;10.98;6.72;;;;;;;1.74;100.00;101712.53;5004092;28;20038;-72
2022/12/07 03:28:55;;;;;;;12.43;7.25;;;;;;;1.73;100.00;101712.59;5006892;28;20493;-72
2022/12/07 03:31:29;;;;;;;16.42;7.50;;;;;;;1.70;100.00;101705.47;5005444;28;20045;-74
2022/12/07 03:33:59;;;;;;;14.05;7.05;;;;;;;1.66;100.00;101717.19;5004574;28;20113;-73
2022/12/07 03:36:37;;;;;;;12.75;7.35;;;;;;;1.65;100.00;101719.91;5005615;28;20041;-72
2022/12/07 03:39:28;;;;;;;12.93;7.28;;;;;;;1.64;100.00;101718.16;5005162;28;20041;-72
2022/12/07 03:41:55;;;;;;;11.77;8.13;;;;;;;1.63;100.00;101714.59;5003424;28;20477;-72
2022/12/07 03:44:22;;;;;;;14.45;7.15;;;;;;;1.71;100.00;101712.59;5005642;28;20045;-72
2022/12/07 03:47:12;;;;;;;9.65;6.15;;;;;;;1.79;100.00;101709.75;5004476;28;20034;-72
2022/12/07 03:50:10;;;;;;;15.07;6.90;;;;;;;1.86;100.00;101700.63;5006708;28;20125;-72
2022/12/07 03:52:45;;;;;;;16.15;7.93;;;;;;;1.92;100.00;101696.97;4996779;28;20061;-71
2022/12/07 03:55:19;;;;;;;13.52;7.68;;;;;;;1.99;100.00;101706.63;5021833;28;20124;-72
2022/12/07 03:57:49;;;;;;;13.07;7.72;;;;;;;2.06;100.00;101699.31;5004979;28;20112;-73
2022/12/07 04:00:15;;;;;;;12.93;6.80;;;;;;;2.09;100.00;101692.06;5021578;28;20229;-71
2022/12/07 04:02:42;;;;;;;16.45;8.25;;;;;;;2.14;100.00;101700.00;5006504;28;20168;-72
2022/12/07 04:05:08;;;;;;;14.68;7.70;;;;;;;2.18;100.00;101699.00;5005243;28;20493;-73
2022/12/07 04:07:34;;;;;;;12.80;7.05;;;;;;;2.20;100.00;101699.88;5006696;28;20041;-71
2022/12/07 04:09:59;;;;;;;14.63;8.00;;;;;;;2.22;100.00;101690.84;5006335;28;20509;-72
2022/12/07 04:12:24;;;;;;;13.50;6.50;;;;;;;2.26;100.00;101703.28;5003398;28;20025;-72
2022/12/07 04:14:50;;;;;;;15.60;7.35;;;;;;;2.28;100.00;101701.47;5005119;28;20057;-73
2022/12/07 04:17:15;;;;;;;10.98;6.32;;;;;;;2.31;100.00;101703.16;5005615;28;20144;-72
2022/12/07 04:19:41;;;;;;;13.38;7.28;;;;;;;2.32;100.00;101698.69;5005596;28;20033;-73
2022/12/07 04:22:06;;;;;;;14.15;6.78;;;;;;;2.33;100.00;101697.75;5008422;28;20421;-72
2022/12/07 04:24:33;;;;;;;12.65;6.82;;;;;;;2.36;100.00;101700.38;5024651;28;20029;-72
2022/12/07 04:26:59;;;;;;;9.73;5.50;;;;;;;2.36;100.00;101701.25;5003722;28;20502;-72
2022/12/07 04:29:25;;;;;;;12.02;6.78;;;;;;;2.39;100.00;101695.81;4990491;28;20048;-72
2022/12/07 04:31:51;;;;;;;10.73;6.30;;;;;;;2.41;100.00;101685.91;4991186;28;20040;-72
2022/12/07 04:34:17;;;;;;;9.23;5.70;;;;;;;2.45;100.00;101694.78;5024822;28;20030;-72
2022/12/07 04:36:44;;;;;;;16.23;6.95;;;;;;;2.48;100.00;101692.03;5010278;28;20034;-73
2022/12/07 04:39:23;;;;;;;9.45;5.82;;;;;;;2.51;100.00;101691.91;5025477;28;20461;-71
2022/12/07 04:41:49;;;;;;;12.45;6.05;;;;;;;2.50;100.00;101680.31;5007239;28;20056;-72
2022/12/07 04:44:15;;;;;;;18.58;7.13;;;;;;;2.50;100.00;101680.31;5024838;28;20069;-73
2022/12/07 04:46:41;;;;;;;11.18;7.10;;;;;;;2.51;100.00;101681.19;5008345;28;20445;-72
2022/12/07 04:49:07;;;;;;;11.88;6.47;;;;;;;2.50;100.00;101679.41;5008809;28;20030;-73
2022/12/07 04:51:33;;;;;;;14.85;6.65;;;;;;;2.49;100.00;101685.72;5009433;28;20485;-72
2022/12/07 04:53:58;;;;;;;9.63;6.15;;;;;;;2.46;100.00;101677.72;5007695;28;20461;-73
2022/12/07 04:56:24;;;;;;;11.30;6.10;;;;;;;2.42;100.00;101684.97;5005639;28;20057;-72
2022/12/07 04:58:51;;;;;;;11.60;6.30;;;;;;;2.40;100.00;101685.94;5020213;28;20065;-72
2022/12/07 05:01:17;;;;;;;13.60;6.80;;;;;;;2.37;100.00;101677.97;4989782;28;20076;-72
2022/12/07 05:03:43;;;;;;;17.00;7.68;;;;;;;2.36;100.00;101677.09;5006305;28;20030;-72
2022/12/07 05:06:09;;;;;;;11.88;7.10;;;;;;;2.33;100.00;101673.59;5007332;28;20053;-71
2022/12/07 05:08:35;;;;;;;14.57;7.18;;;;;;;2.30;100.00;101669.19;5007841;28;20489;-71
2022/12/07 05:11:02;;;;;;;11.98;7.85;;;;;;;2.26;100.00;101678.25;5005424;28;20046;-72
2022/12/07 05:13:28;;;;;;;11.45;6.88;;;;;;;2.20;100.00;101679.28;5004051;28;20049;-72
2022/12/07 05:15:53;;;;;;;16.63;7.10;;;;;;;2.18;100.00;101675.72;5007405;28;20129;-72
2022/12/07 05:18:18;;;;;;;17.20;7.13;;;;;;;2.14;100.00;101667.78;5007046;28;20374;-72
2022/12/07 05:20:45;;;;;;;12.18;7.13;;;;;;;2.10;100.00;101671.47;5007506;28;20038;-73
2022/12/07 05:23:11;;;;;;;15.82;7.28;;;;;;;2.07;100.00;101682.28;5008486;28;20037;-72
2022/12/07 05:25:37;;;;;;;13.50;7.63;;;;;;;2.02;100.00;101679.72;5007712;28;20084;-72
2022/12/07 05:28:03;;;;;;;12.20;6.90;;;;;;;1.99;100.00;101682.47;5007844;28;20036;-72
2022/12/07 05:30:29;;;;;;;14.02;7.13;;;;;;;1.95;100.00;101675.41;5008407;28;20156;-72
2022/12/07 05:32:55;;;;;;;14.63;7.20;;;;;;;1.91;100.00;101673.69;5007885;28;20468;-73
2022/12/07 05:35:21;;;;;;;16.98;7.45;;;;;;;1.88;100.00;101674.69;5023570;28;20505;-72
2022/12/07 05:37:46;;;;;;;13.27;7.68;;;;;;;1.87;100.00;101680.09;5008694;28;20045;-72
2022/12/07 05:40:13;;;;;;;15.57;7.90;;;;;;;1.85;100.00;101682.78;5007712;28;20034;-72
2022/12/07 05:42:39;;;;;;;11.32;7.05;;;;;;;1.81;100.00;101669.47;5006756;28;20485;-72
2022/12/07 05:45:05;;;;;;;11.40;6.75;;;;;;;1.77;100.00;101674.03;5007168;28;20040;-72
2022/12/07 05:47:31;;;;;;;12.13;6.43;;;;;;;1.73;100.00;101673.22;5006770;28;20455;-72
2022/12/07 05:49:56;;;;;;;10.90;7.40;;;;;;;1.71;100.00;101669.69;5006975;28;20017;-72
2022/12/07 05:52:22;;;;;;;10.88;7.32;;;;;;;1.67;100.00;101667.09;5006803;28;20088;-72
2022/12/07 05:54:47;;;;;;;8.98;6.28;;;;;;;1.61;100.00;101668.13;5008535;28;20109;-72
2022/12/07 05:57:12;;;;;;;9.20;5.82;;;;;;;1.54;100.00;101671.88;5002584;28;20049;-72
2022/12/07 05:59:38;;;;;;;8.95;5.70;;;;;;;1.47;100.00;101665.75;5008348;28;20049;-72
2022/12/07 06:02:12;;;;;;;7.22;5.30;;;;;;;1.39;100.00;101667.69;5007258;28;20042;-72
2022/12/07 06:04:40;;;;;;;10.52;6.35;;;;;;;1.33;100.00;101665.16;5021980;28;20491;-72
2022/12/07 06:07:06;;;;;;;9.45;6.32;;;;;;;1.26;100.00;101661.75;5008010;28;20416;-72
2022/12/07 06:09:33;;;;;;;9.20;6.25;;;;;;;1.21;100.00;101668.09;5006520;28;20084;-73
2022/12/07 06:14:42;;;;;;;15.48;6.97;;;;;;;1.21;100.00;101668.09;5008283;28;20406;-72
2022/12/07 06:17:08;;;;;;;15.57;6.93;;;;;;;1.18;100.00;101663.69;5021468;28;20037;-73
2022/12/07 06:19:35;;;;;;;11.05;6.50;;;;;;;1.12;100.00;101669.19;5006429;28;20495;-73
2022/12/07 06:22:00;;;;;;;11.00;6.20;;;;;;;1.14;100.00;101672.69;5003491;28;20025;-73
2022/12/07 06:24:26;;;;;;;11.48;6.80;;;;;;;1.12;100.00;101669.19;5005264;28;20034;-73
2022/12/07 06:26:51;;;;;;;9.55;6.28;;;;;;;1.09;100.00;101671.03;5006093;28;20033;-73
2022/12/07 06:29:18;;;;;;;8.23;6.05;;;;;;;1.06;100.00;101671.09;5008155;28;20032;-74
2022/12/07 06:31:44;;;;;;;10.70;6.22;;;;;;;1.08;100.00;101669.28;4990511;28;20369;-74
2022/12/07 06:34:12;;;;;;;16.60;7.10;;;;;;;1.15;100.00;101676.25;5006668;28;20034;-74
2022/12/07 06:36:38;;;;;;;12.77;7.15;;;;;;;1.18;100.00;101676.22;5004361;28;20037;-74
2022/12/07 06:39:05;;;;;;;16.30;7.20;;;;;;;1.24;100.00;101682.31;5005241;28;20041;-73
2022/12/07 06:41:30;;;;;;;10.68;7.28;;;;;;;1.34;100.00;101680.31;5001779;28;20073;-73
2022/12/07 06:43:56;;;;;;;14.95;7.68;;;;;;;1.39;100.00;101670.38;4986914;28;20070;-73
2022/12/07 06:46:21;;;;;;;13.40;7.78;;;;;;;1.44;100.00;101672.97;5005618;28;20066;-72
2022/12/07 06:48:47;;;;;;;17.17;8.00;;;;;;;1.46;100.00;101671.16;5005089;28;20038;-73
2022/12/07 06:51:12;;;;;;;15.65;7.47;;;;;;;1.52;100.00;101676.38;5005499;28;20057;-73
2022/12/07 06:53:37;;;;;;;16.55;7.97;;;;;;;1.56;100.00;101674.53;5004515;28;20057;-73
2022/12/07 06:56:04;;;;;;;21.90;7.65;;;;;;;1.61;100.00;101669.94;5020406;28;20029;-73
2022/12/07 06:58:30;;;;;;;12.95;7.90;;;;;;;1.62;100.00;101672.56;5021578;28;20061;-73
2022/12/07 07:00:55;;;;;;;16.83;8.48;;;;;;;1.61;100.00;101668.13;5007109;28;20458;-73
2022/12/07 07:03:21;;;;;;;12.45;7.78;;;;;;;1.60;100.00;101670.84;4989115;28;20500;-73
2022/12/07 07:05:47;;;;;;;15.02;8.43;;;;;;;1.60;100.00;101678.91;5007136;28;20175;-73
2022/12/07 07:08:13;;;;;;;13.68;7.35;;;;;;;1.58;100.00;101678.91;5006552;28;20477;-72
2022/12/07 07:10:39;;;;;;;10.88;6.97;;;;;;;1.59;100.00;101682.50;5004793;28;20474;-73
2022/12/07 07:13:04;;;;;;;9.70;7.28;;;;;;;1.57;100.00;101681.63;5005769;28;20106;-73
2022/12/07 07:15:30;;;;;;;16.80;7.30;;;;;;;1.55;100.00;101681.69;5011595;28;20035;-72
2022/12/07 07:17:56;;;;;;;11.32;6.95;;;;;;;1.55;100.00;101689.72;5021700;28;20042;-73
2022/12/07 07:20:22;;;;;;;20.00;7.15;;;;;;;1.54;100.00;101685.28;5005407;28;20515;-72
2022/12/07 07:22:48;;;;;;;11.10;6.95;;;;;;;1.52;100.00;101690.66;5007054;28;20041;-73
2022/12/07 07:25:13;;;;;;;13.55;6.60;;;;;;;1.52;100.00;101698.72;5005986;28;20034;-73
2022/12/07 07:27:39;;;;;;;13.07;7.05;;;;;;;1.52;100.00;101692.47;5020591;28;20037;-72
2022/12/07 07:30:05;;;;;;;12.73;7.25;;;;;;;1.53;100.00;101691.53;5006899;28;20497;-73
2022/12/07 07:32:30;;;;;;;13.75;7.00;;;;;;;1.49;100.00;101696.09;5020914;28;20453;-72
2022/12/07 07:34:55;;;;;;;14.60;6.90;;;;;;;1.51;100.00;101686.22;5005504;28;20117;-73
2022/12/07 07:37:21;;;;;;;12.15;6.57;;;;;;;1.51;100.00;101688.03;5006683;28;20096;-72
2022/12/07 07:39:46;;;;;;;13.13;6.90;;;;;;;1.55;100.00;101686.16;5006841;28;20030;-72
2022/12/07 07:42:12;;;;;;;16.27;7.85;;;;;;;1.58;100.00;101686.97;5006081;28;20052;-72
2022/12/07 07:44:37;;;;;;;14.43;6.80;;;;;;;1.61;100.00;101683.34;5006920;28;20439;-73
2022/12/07 07:47:03;;;;;;;11.75;7.07;;;;;;;1.66;100.00;101686.81;5021264;28;20311;-72
2022/12/07 07:49:28;;;;;;;15.57;6.85;;;;;;;1.68;100.00;101690.31;5006674;28;20038;-73
2022/12/07 07:51:54;;;;;;;14.63;7.22;;;;;;;1.72;100.00;101686.66;5004751;28;20029;-73
2022/12/07 07:54:19;;;;;;;11.65;7.03;;;;;;;1.76;100.00;101686.56;5006166;28;20029;-73
2022/12/07 07:56:45;;;;;;;12.13;7.28;;;;;;;1.79;100.00;101682.94;5004545;28;20033;-72
2022/12/07 07:59:10;;;;;;;19.73;7.15;;;;;;;1.83;100.00;101684.63;5010353;28;20037;-73
2022/12/07 08:01:35;;;;;;;13.35;7.03;;;;;;;1.84;100.00;101690.88;5008953;28;20149;-72
2022/12/07 08:04:01;;;;;;;9.82;6.88;;;;;;;1.83;100.00;101689.13;5009040;28;20025;-73
2022/12/07 08:06:26;;;;;;;10.43;7.20;;;;;;;1.80;100.00;101690.06;5009103;28;20045;-73
2022/12/07 08:08:52;;;;;;;13.38;7.45;;;;;;;1.79;100.00;101690.97;5010083;28;20053;-73
2022/12/07 08:11:18;;;;;;;15.05;7.47;;;;;;;1.74;100.00;101695.56;5009701;28;20033;-73
2022/12/07 08:13:46;;;;;;;10.93;6.38;;;;;;;1.73;100.00;101702.75;5004638;28;20126;-73
2022/12/07 08:16:11;;;;;;;9.90;6.43;;;;;;;1.71;100.00;101701.88;5010673;28;20163;-74
2022/12/07 08:18:38;;;;;;;14.18;6.55;;;;;;;1.67;100.00;101704.66;5007933;28;20064;-73
2022/12/07 08:21:05;;;;;;;10.32;5.70;;;;;;;1.64;100.00;101705.63;5008403;28;20509;-72
2022/12/07 08:23:31;;;;;;;13.55;6.18;;;;;;;1.63;100.00;101708.31;5009286;28;20026;-73
2022/12/07 08:26:05;;;;;;;9.73;6.85;;;;;;;1.64;100.00;101712.78;5008885;28;20095;-73
2022/12/07 08:28:31;;;;;;;16.40;6.35;;;;;;;1.70;100.00;101712.66;4995615;28;20394;-73
2022/12/07 08:31:04;;;;;;;11.77;6.05;;;;;;;1.81;100.00;101720.44;5024929;28;20044;-73
2022/12/07 08:33:29;;;;;;;9.70;6.72;;;;;;;1.91;100.00;101714.88;5008023;28;20074;-73
2022/12/07 08:36:00;;;;;;;14.40;7.38;;;;;;;2.04;100.00;101721.69;5008004;28;20123;-72
2022/12/07 08:38:26;;;;;;;13.25;7.30;;;;;;;2.15;100.00;101710.72;5009785;28;20108;-73
2022/12/07 08:40:55;;;;;;;10.38;7.45;;;;;;;2.31;100.00;101721.97;5008075;28;20468;-73
2022/12/07 08:43:21;;;;;;;12.95;6.97;;;;;;;2.44;100.00;101723.44;5007554;28;20116;-73
2022/12/07 08:45:49;;;;;;;14.45;7.90;;;;;;;2.51;100.00;101716.97;5008164;28;20074;-73
2022/12/07 08:48:17;;;;;;;10.63;6.55;;;;;;;2.61;100.00;101708.69;5023627;28;20033;-73
2022/12/07 08:50:43;;;;;;;14.60;8.20;;;;;;;2.64;100.00;101708.63;5009667;28;20034;-73
2022/12/07 08:53:08;;;;;;;10.35;6.68;;;;;;;2.65;100.00;101711.25;5009631;28;20046;-73
2022/12/07 08:55:34;;;;;;;9.98;7.07;;;;;;;2.69;100.00;101701.31;4999873;28;20066;-73
2022/12/07 08:58:02;;;;;;;14.88;6.45;;;;;;;2.72;100.00;101703.94;5015514;28;20037;-72
2022/12/07 09:00:27;;;;;;;13.05;6.82;;;;;;;2.73;100.00;101700.31;5009452;28;20120;-73
2022/12/07 09:02:53;;;;;;;15.05;6.68;;;;;;;2.76;100.00;101697.56;5008603;28;20141;-72
2022/12/07 09:05:18;;;;;;;12.40;5.70;;;;;;;2.80;100.00;101701.94;5007076;28;20036;-73
2022/12/07 09:07:49;;;;;;;11.02;6.72;;;;;;;2.83;100.00;101699.13;5007843;28;20121;-73
2022/12/07 09:10:14;;;;;;;9.75;5.78;;;;;;;2.86;100.00;101692.81;5006197;28;20052;-74
2022/12/07 09:12:40;;;;;;;12.02;5.70;;;;;;;2.90;100.00;101697.19;5007375;28;20026;-73
2022/12/07 09:15:06;;;;;;;11.05;6.13;;;;;;;2.95;100.00;101697.94;4998410;28;20093;-73
2022/12/07 09:17:35;;;;;;;15.15;5.60;;;;;;;3.00;100.00;101699.56;5009321;28;20038;-72
2022/12/07 09:20:01;;;;;;;12.95;5.50;;;;;;;3.01;100.00;101698.66;5009057;28;20037;-72
2022/12/07 09:22:30;;;;;;;10.77;5.18;;;;;;;3.03;100.00;101702.19;5024026;28;20046;-73
2022/12/07 09:24:57;;;;;;;8.50;4.78;;;;;;;2.99;100.00;101695.13;5006777;28;20026;-73
2022/12/07 09:27:22;;;;;;;15.40;4.68;;;;;;;2.97;100.00;101688.91;5007518;28;20038;-73
2022/12/07 09:29:47;;;;;;;8.38;4.70;;;;;;;2.96;100.00;101699.69;5007497;28;20117;-72
2022/12/07 09:32:13;;;;;;;7.28;4.43;;;;;;;2.92;100.00;101698.91;5008048;28;20045;-72
2022/12/07 09:34:38;;;;;;;7.20;4.43;;;;;;;2.87;100.00;101702.63;5006987;28;20109;-73
2022/12/07 09:37:04;;;;;;;9.85;5.70;;;;;;;2.84;100.00;101703.59;5008484;28;20037;-72
2022/12/07 09:39:29;;;;;;;9.90;4.88;;;;;;;2.83;100.00;101703.63;5023527;28;20045;-73
2022/12/07 09:41:57;;;;;;;5.85;4.07;;;;;;;2.83;100.00;101709.88;5005324;28;20884;-73
2022/12/07 09:44:25;;;;;;;9.05;4.30;;;;;;;2.83;100.00;101707.19;4991262;28;20069;-73
2022/12/07 09:46:52;;;;;;;7.25;3.80;;;;;;;2.85;100.00;101700.00;5002948;28;20032;-73
2022/12/07 09:49:21;;;;;;;8.35;4.40;;;;;;;2.90;100.00;101699.88;5007996;28;20100;-73
2022/12/07 09:51:58;;;;;;;13.80;4.63;;;;;;;2.96;100.00;101705.06;5023316;28;20045;-73
2022/12/07 09:54:24;;;;;;;11.95;4.82;;;;;;;3.00;100.00;101704.06;5007382;28;20036;-73
2022/12/07 09:56:49;;;;;;;11.88;4.78;;;;;;;3.04;100.00;101697.69;5005008;28;20026;-72
2022/12/07 09:59:18;;;;;;;7.15;4.60;;;;;;;3.09;100.00;101703.81;5022367;28;20053;-73
2022/12/07 10:01:46;;;;;;;10.32;4.15;;;;;;;3.17;100.00;101703.59;5008500;28;20480;-73
2022/12/07 10:04:18;;;;;;;9.95;5.07;;;;;;;3.23;100.00;101696.25;5007662;28;20018;-74
2022/12/07 10:06:43;;;;;;;9.07;4.57;;;;;;;3.37;100.00;101685.09;5008694;28;20043;-72
2022/12/07 10:09:14;;;;;;;9.38;4.60;;;;;;;3.51;100.00;101684.69;5008082;28;20041;-73
2022/12/07 10:12:09;;;;;;;11.45;4.93;;;;;;;3.65;100.00;101677.09;5006241;28;20045;-73
2022/12/07 10:14:37;;;;;;;13.95;5.30;;;;;;;3.78;100.00;101675.78;5003198;28;20050;-74
2022/12/07 10:17:02;;;;;;;7.90;4.95;;;;;;;3.88;100.00;101672.81;4987512;28;20033;-73
2022/12/07 10:19:30;;;;;;;19.13;5.53;;;;;;;3.97;100.00;101680.59;5005960;28;20373;-73
2022/12/07 10:22:00;;;;;;;12.82;5.57;;;;;;;4.05;100.00;101675.81;5006485;28;20038;-73
2022/12/07 10:24:25;;;;;;;16.92;5.95;;;;;;;4.13;100.00;101676.47;5006363;28;20026;-73
2022/12/07 10:26:52;;;;;;;17.58;6.53;;;;;;;4.14;100.00;101671.97;5004743;28;20373;-73
2022/12/07 10:29:33;;;;;;;14.48;5.28;;;;;;;4.13;100.00;101672.91;5007405;28;20042;-73
2022/12/07 10:32:13;;;;;;;12.63;4.80;;;;;;;4.10;100.00;101671.16;4988927;28;20052;-73
2022/12/07 10:34:39;;;;;;;11.70;5.47;;;;;;;4.12;100.00;101666.63;5022834;28;20041;-72
2022/12/07 10:37:14;;;;;;;10.48;5.28;;;;;;;4.22;100.00;101673.47;5006107;28;20352;-73
2022/12/07 10:39:44;;;;;;;9.00;5.47;;;;;;;4.29;100.00;101664.28;5007687;28;20095;-73
2022/12/07 10:42:27;;;;;;;10.10;4.90;;;;;;;4.41;100.00;101662.97;5006265;28;20041;-73
2022/12/07 10:45:11;;;;;;;9.32;5.55;;;;;;;4.56;100.00;101656.16;5022485;28;20036;-73
2022/12/07 10:47:44;;;;;;;8.07;5.07;;;;;;;4.67;100.00;101648.63;5020394;28;20030;-72
2022/12/07 10:50:40;;;;;;;9.90;5.18;;;;;;;4.82;100.00;101650.75;5006592;28;20052;-72
2022/12/07 10:53:46;;;;;;;12.95;5.22;;;;;;;4.94;100.00;101651.25;5005245;28;20038;-73
2022/12/07 10:56:51;;;;;;;11.25;5.38;;;;;;;5.01;100.00;101650.97;5003769;28;20498;-73
2022/12/07 10:59:42;;;;;;;14.80;4.30;;;;;;;5.06;100.00;101642.72;4987671;28;20070;-73
2022/12/07 11:02:25;;;;;;;9.35;3.95;;;;;;;5.08;100.00;101647.13;4997353;28;20120;-73
2022/12/07 11:05:02;;;;;;;8.00;4.75;;;;;;;5.19;100.00;101644.03;4999996;28;20099;-73
2022/12/07 11:07:38;;;;;;;7.63;3.70;;;;;;;5.31;100.00;101637.28;4987402;28;20053;-72
2022/12/07 11:10:18;;;;;;;4.75;3.40;;;;;;;5.38;100.00;101626.19;5002096;28;20133;-72
2022/12/07 11:13:10;;;;;;;12.18;4.30;;;;;;;5.44;100.00;101621.50;5004279;28;20389;-74
2022/12/07 11:15:42;;;;;;;6.95;3.92;;;;;;;5.52;100.00;101632.88;5006768;28;20056;-73
2022/12/07 11:18:15;;;;;;;6.50;4.50;;;;;;;5.61;100.00;101627.13;4996101;28;20046;-73
2022/12/07 11:20:58;;;;;;;8.25;3.50;;;;;;;5.68;100.00;101625.94;4987909;28;20553;-73
2022/12/07 11:23:44;;;;;;;9.38;3.90;;;;;;;5.69;100.00;101622.31;4989287;28;20058;-73
2022/12/07 11:26:22;;;;;;;7.45;3.63;;;;;;;5.73;100.00;101623.94;5006932;28;20485;-73
2022/12/07 11:29:08;;;;;;;7.32;4.47;;;;;;;5.78;100.00;101623.75;5006139;28;20072;-72
2022/12/07 11:32:04;;;;;;;8.30;4.47;;;;;;;5.84;100.00;101618.13;5009457;28;20041;-72
2022/12/07 11:34:42;;;;;;;8.52;3.67;;;;;;;5.84;99.60;101618.13;4989732;28;20447;-73